Terminal Aerodrome Forecast
Issued by NWS Newport/Morehead City, NC

Home | Current Version | Previous Version | Text Only | Print | Product List | Glossary On
Versions: 1 2 3 4 5 6 7 8 9 10 11 12 13
534
FTUS42 KMHX 100547
TAFEWN
TAF
KEWN 100547Z 1006/1106 26009KT P6SM OVC080
     FM100800 27006KT P6SM SKC
     FM101400 27011G19KT P6SM BKN045
     FM110000 25007KT P6SM SKC=

USA.gov is the U.S. government's official web portal to all federal, state and local government web resources and services.